»·PEaware :: N333ZS KBXK-KCHD

N333ZS :: KBXK-KCHD

FLIGHT INFORMATION

Flight Status: Arrived
Operator: Privately registered:
United States
More flights under this callsign
Pilot: Judd H. (29974)
Aircraft: CESSNA 182 SKYLANE
(C182)
More flights by this aircraft type
Origin: KBXK Buckeye Mun
United States
Destination: KCHD Chandler Mun
United States
More flights between these airports :: More routes between these airports
Route:
File this flight plan on PilotEdge
Remarks: FLYWAY
Altitude:
(Current/Filed)
4,000ft
Speed:
(Current/Filed)
120kts
Departed: 05-Oct-20 02:01 PM
Arrived: 05-Oct-20 02:36 PM
Distance/Time
Traveled:
45nm/0:35
Distance/Time
To Go:
Arrived

Flight Plot

Page will automatically refresh every two minutes.

Flight plan parsing failed; only flown route is shown


Map Options




Map Legend


Flown Route
Filed Route
Departure Airport
Arrival Airport
Navaid (VOR, NDB)
Fix

Horizontal Profiles

Position Reports

Time Latitude Longitude Heading Altitude Ground
Speed
05-Oct-20 13:52 33.423278 -112.684109 270 1036ft 0kts
05-Oct-20 13:53 33.423278 -112.684112 270 1036ft 0kts
05-Oct-20 13:54 33.423278 -112.684113 270 1036ft 0kts
05-Oct-20 13:55 33.423278 -112.684115 270 1036ft 0kts
05-Oct-20 13:56 33.423278 -112.684116 270 1036ft 0kts
05-Oct-20 13:57 33.424286 -112.684186 311 1036ft 10kts
05-Oct-20 13:58 33.429325 -112.684866 357 1036ft 4kts
05-Oct-20 13:59 33.429740 -112.685477 273 1036ft 0kts
05-Oct-20 14:00 33.416800 -112.686481 179 1226ft 101kts
05-Oct-20 14:01 33.385607 -112.689787 182 1952ft 121kts
05-Oct-20 14:02 33.360142 -112.711143 262 2604ft 126kts
05-Oct-20 14:03 33.380334 -112.740879 342 3267ft 127kts
05-Oct-20 14:04 33.413897 -112.745211 0 4012ft 120kts
05-Oct-20 14:05 33.448062 -112.746445 359 4553ft 128kts
05-Oct-20 14:06 33.482377 -112.734937 78 4359ft 148kts
05-Oct-20 14:07 33.478278 -112.690475 99 4105ft 113kts
05-Oct-20 14:08 33.464579 -112.656732 120 4114ft 126kts
05-Oct-20 14:09 33.446073 -112.618672 124 4094ft 134kts
05-Oct-20 14:10 33.424729 -112.582103 124 4098ft 132kts
05-Oct-20 14:11 33.403590 -112.545864 125 4100ft 132kts
05-Oct-20 14:12 33.387045 -112.506936 101 4099ft 132kts
05-Oct-20 14:13 33.380699 -112.463541 98 4102ft 133kts
05-Oct-20 14:14 33.378629 -112.419071 93 4101ft 133kts
05-Oct-20 14:15 33.376260 -112.374805 102 4099ft 132kts
05-Oct-20 14:16 33.368950 -112.331538 102 4100ft 132kts
05-Oct-20 14:17 33.358760 -112.289650 119 4109ft 131kts
05-Oct-20 14:18 33.340514 -112.251551 119 4101ft 132kts
05-Oct-20 14:19 33.317515 -112.217366 130 4100ft 132kts
05-Oct-20 14:20 33.293901 -112.183751 130 4101ft 132kts
05-Oct-20 14:21 33.270641 -112.149805 130 4100ft 132kts
05-Oct-20 14:22 33.246292 -112.114822 129 4103ft 138kts
05-Oct-20 14:23 33.226858 -112.074629 118 4102ft 140kts
05-Oct-20 14:25 33.206732 -112.034943 135 4097ft 139kts
05-Oct-20 14:26 33.178760 -112.002700 137 4016ft 145kts
05-Oct-20 14:27 33.144693 -111.983848 223 3490ft 145kts
05-Oct-20 14:28 33.145263 -112.017071 351 2975ft 131kts
05-Oct-20 14:29 33.166018 -111.985631 70 2699ft 125kts
05-Oct-20 14:30 33.176506 -111.947648 62 2696ft 117kts
05-Oct-20 14:31 33.194914 -111.916158 49 2703ft 115kts
05-Oct-20 14:32 33.214743 -111.886052 50 2698ft 116kts
05-Oct-20 14:33 33.235286 -111.856969 47 2164ft 109kts
05-Oct-20 14:34 33.254099 -111.830443 46 1626ft 95kts
05-Oct-20 14:35 33.269247 -111.809249 52 1246ft 54kts
05-Oct-20 14:36 33.271186 -111.811304 229 1246ft 32kts
05-Oct-20 14:37 33.271606 -111.814255 155 1246ft 0kts
05-Oct-20 14:38 33.271606 -111.814254 155 1246ft 0kts
05-Oct-20 14:39 33.271606 -111.814254 155 1246ft 0kts
05-Oct-20 14:40 33.271606 -111.814254 155 1246ft 0kts
05-Oct-20 14:41 33.271606 -111.814254 155 1246ft 0kts
05-Oct-20 14:42 33.271606 -111.814254 155 1246ft 0kts
05-Oct-20 14:42 33.271606 -111.814254 155 1246ft 0kts
05-Oct-20 14:44 33.271606 -111.814254 155 1246ft 0kts
05-Oct-20 14:45 33.271606 -111.814254 155 1246ft 0kts
05-Oct-20 14:45 33.271606 -111.814254 155 1246ft 0kts
05-Oct-20 14:46 33.271606 -111.814254 155 1246ft 0kts
05-Oct-20 14:47 33.271606 -111.814254 155 1246ft 0kts
05-Oct-20 14:48 33.271606 -111.814254 155 1246ft 0kts
05-Oct-20 14:49 33.271606 -111.814254 155 1246ft 0kts

Navigation Log

Ident Type
Flight plan parsing failed, navigation log unavailable